sensor_id;sensor_type;location;lat;lon;timestamp;temperature;humidity
3360;DHT22;1693;49.602;11.046;2023-05-02T00:01:21;6.80;99.90
3360;DHT22;1693;49.602;11.046;2023-05-02T00:03:48;6.70;99.90
3360;DHT22;1693;49.602;11.046;2023-05-02T00:06:15;6.70;99.90
3360;DHT22;1693;49.602;11.046;2023-05-02T00:08:42;6.60;99.90
3360;DHT22;1693;49.602;11.046;2023-05-02T00:11:10;6.60;99.90
3360;DHT22;1693;49.602;11.046;2023-05-02T00:13:38;6.60;99.90
3360;DHT22;1693;49.602;11.046;2023-05-02T00:16:05;6.60;99.90
3360;DHT22;1693;49.602;11.046;2023-05-02T00:18:33;6.50;99.90
3360;DHT22;1693;49.602;11.046;2023-05-02T00:21:00;6.40;99.90
3360;DHT22;1693;49.602;11.046;2023-05-02T00:23:27;6.40;99.90
3360;DHT22;1693;49.602;11.046;2023-05-02T00:25:54;6.40;99.90
3360;DHT22;1693;49.602;11.046;2023-05-02T00:28:21;6.40;99.90
3360;DHT22;1693;49.602;11.046;2023-05-02T00:30:49;6.50;99.90
3360;DHT22;1693;49.602;11.046;2023-05-02T00:33:16;6.50;99.90
3360;DHT22;1693;49.602;11.046;2023-05-02T00:35:44;6.50;99.90
3360;DHT22;1693;49.602;11.046;2023-05-02T00:38:11;6.60;99.90
3360;DHT22;1693;49.602;11.046;2023-05-02T00:40:45;6.60;99.90
3360;DHT22;1693;49.602;11.046;2023-05-02T00:43:12;6.60;99.90
3360;DHT22;1693;49.602;11.046;2023-05-02T00:45:41;6.60;99.90
3360;DHT22;1693;49.602;11.046;2023-05-02T00:48:10;6.60;99.90
3360;DHT22;1693;49.602;11.046;2023-05-02T00:50:39;6.50;99.90
3360;DHT22;1693;49.602;11.046;2023-05-02T00:53:06;6.50;99.90
3360;DHT22;1693;49.602;11.046;2023-05-02T00:55:34;6.40;99.90
3360;DHT22;1693;49.602;11.046;2023-05-02T00:58:03;6.40;99.90
3360;DHT22;1693;49.602;11.046;2023-05-02T01:00:40;6.40;99.90
3360;DHT22;1693;49.602;11.046;2023-05-02T01:03:16;6.30;99.90
3360;DHT22;1693;49.602;11.046;2023-05-02T01:05:52;6.40;99.90
3360;DHT22;1693;49.602;11.046;2023-05-02T01:08:33;6.30;99.90
3360;DHT22;1693;49.602;11.046;2023-05-02T01:11:05;6.40;99.90
3360;DHT22;1693;49.602;11.046;2023-05-02T01:13:35;6.20;99.90
3360;DHT22;1693;49.602;11.046;2023-05-02T01:16:05;6.30;99.90
3360;DHT22;1693;49.602;11.046;2023-05-02T01:18:37;6.30;99.90
3360;DHT22;1693;49.602;11.046;2023-05-02T01:21:08;6.30;99.90
3360;DHT22;1693;49.602;11.046;2023-05-02T01:23:42;6.30;99.90
3360;DHT22;1693;49.602;11.046;2023-05-02T01:26:18;6.20;99.90
3360;DHT22;1693;49.602;11.046;2023-05-02T01:29:05;6.20;99.90
3360;DHT22;1693;49.602;11.046;2023-05-02T01:31:35;6.10;99.90
3360;DHT22;1693;49.602;11.046;2023-05-02T01:34:05;6.00;99.90
3360;DHT22;1693;49.602;11.046;2023-05-02T01:36:35;6.00;99.90
3360;DHT22;1693;49.602;11.046;2023-05-02T01:39:05;6.00;99.90
3360;DHT22;1693;49.602;11.046;2023-05-02T01:41:35;6.00;99.90
3360;DHT22;1693;49.602;11.046;2023-05-02T01:44:02;6.00;99.90
3360;DHT22;1693;49.602;11.046;2023-05-02T01:46:33;5.90;99.90
3360;DHT22;1693;49.602;11.046;2023-05-02T01:49:06;6.00;99.90
3360;DHT22;1693;49.602;11.046;2023-05-02T01:51:37;6.00;99.90
3360;DHT22;1693;49.602;11.046;2023-05-02T01:54:07;6.00;99.90
3360;DHT22;1693;49.602;11.046;2023-05-02T01:56:37;6.00;99.90
3360;DHT22;1693;49.602;11.046;2023-05-02T01:59:07;6.00;99.90
3360;DHT22;1693;49.602;11.046;2023-05-02T02:01:37;6.00;99.90
3360;DHT22;1693;49.602;11.046;2023-05-02T02:04:09;6.00;99.90
3360;DHT22;1693;49.602;11.046;2023-05-02T02:06:37;6.10;99.90
3360;DHT22;1693;49.602;11.046;2023-05-02T02:09:08;6.10;99.90
3360;DHT22;1693;49.602;11.046;2023-05-02T02:11:39;6.10;99.90
3360;DHT22;1693;49.602;11.046;2023-05-02T02:14:16;6.10;99.90
3360;DHT22;1693;49.602;11.046;2023-05-02T02:16:45;6.00;99.90
3360;DHT22;1693;49.602;11.046;2023-05-02T02:19:14;6.00;99.90
3360;DHT22;1693;49.602;11.046;2023-05-02T02:21:42;6.00;99.90
3360;DHT22;1693;49.602;11.046;2023-05-02T02:24:13;6.00;99.90
3360;DHT22;1693;49.602;11.046;2023-05-02T02:26:43;6.00;99.90
3360;DHT22;1693;49.602;11.046;2023-05-02T02:29:11;6.00;99.90
3360;DHT22;1693;49.602;11.046;2023-05-02T02:31:38;6.00;99.90
3360;DHT22;1693;49.602;11.046;2023-05-02T02:34:07;6.00;99.90
3360;DHT22;1693;49.602;11.046;2023-05-02T02:36:38;6.00;99.90
3360;DHT22;1693;49.602;11.046;2023-05-02T02:39:17;5.90;99.90
3360;DHT22;1693;49.602;11.046;2023-05-02T02:41:52;5.90;99.90
3360;DHT22;1693;49.602;11.046;2023-05-02T02:44:30;6.20;99.90
3360;DHT22;1693;49.602;11.046;2023-05-02T02:47:05;6.10;99.90
3360;DHT22;1693;49.602;11.046;2023-05-02T02:49:43;6.00;99.90
3360;DHT22;1693;49.602;11.046;2023-05-02T02:52:18;6.00;99.90
3360;DHT22;1693;49.602;11.046;2023-05-02T02:54:51;5.90;99.90
3360;DHT22;1693;49.602;11.046;2023-05-02T02:57:27;6.00;99.90
3360;DHT22;1693;49.602;11.046;2023-05-02T03:00:00;6.10;99.90
3360;DHT22;1693;49.602;11.046;2023-05-02T03:02:31;6.00;99.90
3360;DHT22;1693;49.602;11.046;2023-05-02T03:05:01;6.10;99.90
3360;DHT22;1693;49.602;11.046;2023-05-02T03:07:29;6.10;99.90
3360;DHT22;1693;49.602;11.046;2023-05-02T03:09:57;6.00;99.90
3360;DHT22;1693;49.602;11.046;2023-05-02T03:12:24;5.90;99.90
3360;DHT22;1693;49.602;11.046;2023-05-02T03:14:51;6.00;99.90
3360;DHT22;1693;49.602;11.046;2023-05-02T03:17:18;6.10;99.90
3360;DHT22;1693;49.602;11.046;2023-05-02T03:19:45;6.00;99.90
3360;DHT22;1693;49.602;11.046;2023-05-02T03:22:14;6.10;99.90
3360;DHT22;1693;49.602;11.046;2023-05-02T03:24:42;6.00;99.90
3360;DHT22;1693;49.602;11.046;2023-05-02T03:27:09;5.90;99.90
3360;DHT22;1693;49.602;11.046;2023-05-02T03:29:36;5.90;99.90
3360;DHT22;1693;49.602;11.046;2023-05-02T03:32:03;5.80;99.90
3360;DHT22;1693;49.602;11.046;2023-05-02T03:34:31;5.80;99.90
3360;DHT22;1693;49.602;11.046;2023-05-02T03:36:58;5.80;99.90
3360;DHT22;1693;49.602;11.046;2023-05-02T03:39:27;5.70;99.90
3360;DHT22;1693;49.602;11.046;2023-05-02T03:41:54;5.70;99.90
3360;DHT22;1693;49.602;11.046;2023-05-02T03:44:21;5.70;99.90
3360;DHT22;1693;49.602;11.046;2023-05-02T03:46:49;5.70;99.90
3360;DHT22;1693;49.602;11.046;2023-05-02T03:49:17;5.70;99.90
3360;DHT22;1693;49.602;11.046;2023-05-02T03:51:44;5.70;99.90
3360;DHT22;1693;49.602;11.046;2023-05-02T03:54:11;5.80;99.90
3360;DHT22;1693;49.602;11.046;2023-05-02T03:56:39;5.80;99.90
3360;DHT22;1693;49.602;11.046;2023-05-02T03:59:07;5.80;99.90
3360;DHT22;1693;49.602;11.046;2023-05-02T04:01:34;5.90;99.90
3360;DHT22;1693;49.602;11.046;2023-05-02T04:04:01;5.90;99.90
3360;DHT22;1693;49.602;11.046;2023-05-02T04:06:28;6.10;99.90
3360;DHT22;1693;49.602;11.046;2023-05-02T04:08:56;6.20;99.90
3360;DHT22;1693;49.602;11.046;2023-05-02T04:11:25;6.20;99.90
3360;DHT22;1693;49.602;11.046;2023-05-02T04:13:56;6.20;99.90
3360;DHT22;1693;49.602;11.046;2023-05-02T04:16:23;6.20;99.90
3360;DHT22;1693;49.602;11.046;2023-05-02T04:18:51;6.30;99.90
3360;DHT22;1693;49.602;11.046;2023-05-02T04:21:19;6.30;99.90
3360;DHT22;1693;49.602;11.046;2023-05-02T04:23:46;6.30;99.90
3360;DHT22;1693;49.602;11.046;2023-05-02T04:26:14;6.40;99.90
3360;DHT22;1693;49.602;11.046;2023-05-02T04:28:41;6.40;99.90
3360;DHT22;1693;49.602;11.046;2023-05-02T04:31:10;6.50;99.90
3360;DHT22;1693;49.602;11.046;2023-05-02T04:36:05;6.70;99.90
3360;DHT22;1693;49.602;11.046;2023-05-02T04:38:32;6.70;99.90
3360;DHT22;1693;49.602;11.046;2023-05-02T04:40:59;6.70;99.90
3360;DHT22;1693;49.602;11.046;2023-05-02T04:43:26;6.70;99.90
3360;DHT22;1693;49.602;11.046;2023-05-02T04:45:54;6.80;99.90
3360;DHT22;1693;49.602;11.046;2023-05-02T04:48:23;6.80;99.90
3360;DHT22;1693;49.602;11.046;2023-05-02T04:50:51;6.90;99.90
3360;DHT22;1693;49.602;11.046;2023-05-02T04:53:20;7.00;99.90
3360;DHT22;1693;49.602;11.046;2023-05-02T04:55:47;7.00;99.90
3360;DHT22;1693;49.602;11.046;2023-05-02T04:58:14;7.00;99.90
3360;DHT22;1693;49.602;11.046;2023-05-02T05:00:42;7.00;99.90
3360;DHT22;1693;49.602;11.046;2023-05-02T05:03:09;7.10;99.90
3360;DHT22;1693;49.602;11.046;2023-05-02T05:05:37;7.10;99.90
3360;DHT22;1693;49.602;11.046;2023-05-02T05:08:05;7.10;99.90
3360;DHT22;1693;49.602;11.046;2023-05-02T05:10:32;7.20;99.90
3360;DHT22;1693;49.602;11.046;2023-05-02T05:12:59;7.20;99.90
3360;DHT22;1693;49.602;11.046;2023-05-02T05:15:26;7.30;99.90
3360;DHT22;1693;49.602;11.046;2023-05-02T05:17:53;7.30;99.90
3360;DHT22;1693;49.602;11.046;2023-05-02T05:20:20;7.30;99.90
3360;DHT22;1693;49.602;11.046;2023-05-02T05:22:48;7.50;99.90
3360;DHT22;1693;49.602;11.046;2023-05-02T05:25:16;7.40;99.90
3360;DHT22;1693;49.602;11.046;2023-05-02T05:27:43;7.50;99.90
3360;DHT22;1693;49.602;11.046;2023-05-02T05:30:11;7.40;99.90
3360;DHT22;1693;49.602;11.046;2023-05-02T05:32:39;7.40;99.90
3360;DHT22;1693;49.602;11.046;2023-05-02T05:35:08;7.50;99.90
3360;DHT22;1693;49.602;11.046;2023-05-02T05:37:35;7.50;99.90
3360;DHT22;1693;49.602;11.046;2023-05-02T05:40:07;7.70;99.90
3360;DHT22;1693;49.602;11.046;2023-05-02T05:42:35;7.80;99.90
3360;DHT22;1693;49.602;11.046;2023-05-02T05:45:04;8.10;99.90
3360;DHT22;1693;49.602;11.046;2023-05-02T05:47:34;8.30;99.90
3360;DHT22;1693;49.602;11.046;2023-05-02T05:50:03;8.30;99.90
3360;DHT22;1693;49.602;11.046;2023-05-02T05:52:30;8.10;99.90
3360;DHT22;1693;49.602;11.046;2023-05-02T05:54:57;8.10;99.90
3360;DHT22;1693;49.602;11.046;2023-05-02T05:57:26;8.20;99.90
3360;DHT22;1693;49.602;11.046;2023-05-02T05:59:53;8.10;99.90
3360;DHT22;1693;49.602;11.046;2023-05-02T06:02:20;8.20;99.90
3360;DHT22;1693;49.602;11.046;2023-05-02T06:04:48;8.10;99.90
3360;DHT22;1693;49.602;11.046;2023-05-02T06:07:16;8.10;99.90
3360;DHT22;1693;49.602;11.046;2023-05-02T06:09:44;8.30;99.90
3360;DHT22;1693;49.602;11.046;2023-05-02T06:12:11;8.40;99.90
3360;DHT22;1693;49.602;11.046;2023-05-02T06:14:42;8.30;99.90
3360;DHT22;1693;49.602;11.046;2023-05-02T06:17:09;8.50;99.90
3360;DHT22;1693;49.602;11.046;2023-05-02T06:19:36;8.60;99.90
3360;DHT22;1693;49.602;11.046;2023-05-02T06:22:03;8.60;99.90
3360;DHT22;1693;49.602;11.046;2023-05-02T06:24:30;8.50;99.90
3360;DHT22;1693;49.602;11.046;2023-05-02T06:26:57;8.70;99.90
3360;DHT22;1693;49.602;11.046;2023-05-02T06:29:25;8.50;99.90
3360;DHT22;1693;49.602;11.046;2023-05-02T06:31:55;8.50;99.90
3360;DHT22;1693;49.602;11.046;2023-05-02T06:34:22;8.50;99.90
3360;DHT22;1693;49.602;11.046;2023-05-02T06:37:00;8.50;99.90
3360;DHT22;1693;49.602;11.046;2023-05-02T06:39:27;8.50;99.90
3360;DHT22;1693;49.602;11.046;2023-05-02T06:41:56;8.60;99.90
3360;DHT22;1693;49.602;11.046;2023-05-02T06:44:23;8.60;99.90
3360;DHT22;1693;49.602;11.046;2023-05-02T06:46:51;8.70;99.90
3360;DHT22;1693;49.602;11.046;2023-05-02T06:49:19;8.70;99.90
3360;DHT22;1693;49.602;11.046;2023-05-02T06:51:46;8.70;99.90
3360;DHT22;1693;49.602;11.046;2023-05-02T06:54:14;8.70;99.90
3360;DHT22;1693;49.602;11.046;2023-05-02T06:56:41;8.80;99.90
3360;DHT22;1693;49.602;11.046;2023-05-02T06:59:08;8.80;99.90
3360;DHT22;1693;49.602;11.046;2023-05-02T07:01:36;8.90;99.90
3360;DHT22;1693;49.602;11.046;2023-05-02T07:04:13;8.90;99.90
3360;DHT22;1693;49.602;11.046;2023-05-02T07:06:41;9.10;99.90
3360;DHT22;1693;49.602;11.046;2023-05-02T07:09:09;9.20;99.90
3360;DHT22;1693;49.602;11.046;2023-05-02T07:11:45;9.30;99.90
3360;DHT22;1693;49.602;11.046;2023-05-02T07:14:13;9.40;99.90
3360;DHT22;1693;49.602;11.046;2023-05-02T07:16:40;9.40;99.90
3360;DHT22;1693;49.602;11.046;2023-05-02T07:19:08;9.40;99.90
3360;DHT22;1693;49.602;11.046;2023-05-02T07:21:35;9.70;99.90
3360;DHT22;1693;49.602;11.046;2023-05-02T07:24:04;9.60;99.90
3360;DHT22;1693;49.602;11.046;2023-05-02T07:26:31;9.60;99.90
3360;DHT22;1693;49.602;11.046;2023-05-02T07:29:00;9.60;99.90
3360;DHT22;1693;49.602;11.046;2023-05-02T07:31:28;9.80;99.90
3360;DHT22;1693;49.602;11.046;2023-05-02T07:33:55;10.00;99.90
3360;DHT22;1693;49.602;11.046;2023-05-02T07:36:23;9.90;99.90
3360;DHT22;1693;49.602;11.046;2023-05-02T07:38:50;9.90;99.90
3360;DHT22;1693;49.602;11.046;2023-05-02T07:41:19;10.00;99.90
3360;DHT22;1693;49.602;11.046;2023-05-02T07:43:52;10.00;99.90
3360;DHT22;1693;49.602;11.046;2023-05-02T07:46:20;10.00;99.90
3360;DHT22;1693;49.602;11.046;2023-05-02T07:48:47;9.90;99.90
3360;DHT22;1693;49.602;11.046;2023-05-02T07:51:15;9.90;99.90
3360;DHT22;1693;49.602;11.046;2023-05-02T07:53:45;10.00;99.90
3360;DHT22;1693;49.602;11.046;2023-05-02T07:56:11;10.20;99.90
3360;DHT22;1693;49.602;11.046;2023-05-02T07:58:40;10.40;99.90
3360;DHT22;1693;49.602;11.046;2023-05-02T08:01:07;10.20;99.90
3360;DHT22;1693;49.602;11.046;2023-05-02T08:03:35;10.30;99.90
3360;DHT22;1693;49.602;11.046;2023-05-02T08:06:03;10.50;99.90
3360;DHT22;1693;49.602;11.046;2023-05-02T08:08:30;10.90;99.90
3360;DHT22;1693;49.602;11.046;2023-05-02T08:10:57;11.00;99.90
3360;DHT22;1693;49.602;11.046;2023-05-02T08:13:33;11.00;99.90
3360;DHT22;1693;49.602;11.046;2023-05-02T08:16:02;11.00;99.90
3360;DHT22;1693;49.602;11.046;2023-05-02T08:18:29;11.20;99.90
3360;DHT22;1693;49.602;11.046;2023-05-02T08:20:57;11.50;99.90
3360;DHT22;1693;49.602;11.046;2023-05-02T08:23:26;11.20;99.90
3360;DHT22;1693;49.602;11.046;2023-05-02T11:04:01;20.30;99.90
3360;DHT22;1693;49.602;11.046;2023-05-02T11:06:29;20.30;99.90
3360;DHT22;1693;49.602;11.046;2023-05-02T11:09:29;21.50;99.90
3360;DHT22;1693;49.602;11.046;2023-05-02T11:11:57;20.20;99.90
3360;DHT22;1693;49.602;11.046;2023-05-02T11:14:46;19.60;99.90
3360;DHT22;1693;49.602;11.046;2023-05-02T11:17:15;19.40;99.90
3360;DHT22;1693;49.602;11.046;2023-05-02T11:22:56;19.30;99.90
3360;DHT22;1693;49.602;11.046;2023-05-02T11:25:35;18.60;99.90
3360;DHT22;1693;49.602;11.046;2023-05-02T11:28:05;18.30;99.90
3360;DHT22;1693;49.602;11.046;2023-05-02T11:30:36;18.60;99.90
3360;DHT22;1693;49.602;11.046;2023-05-02T11:33:14;18.20;99.90
3360;DHT22;1693;49.602;11.046;2023-05-02T11:35:43;17.90;99.90
3360;DHT22;1693;49.602;11.046;2023-05-02T11:38:17;17.70;99.90
3360;DHT22;1693;49.602;11.046;2023-05-02T11:40:57;17.50;99.90
3360;DHT22;1693;49.602;11.046;2023-05-02T11:43:27;17.80;99.90
3360;DHT22;1693;49.602;11.046;2023-05-02T11:45:56;17.50;99.90
3360;DHT22;1693;49.602;11.046;2023-05-02T11:48:26;17.60;99.90
3360;DHT22;1693;49.602;11.046;2023-05-02T11:50:56;17.70;99.90
3360;DHT22;1693;49.602;11.046;2023-05-02T11:53:28;17.00;99.90
3360;DHT22;1693;49.602;11.046;2023-05-02T11:56:00;16.50;99.90
3360;DHT22;1693;49.602;11.046;2023-05-02T11:58:29;16.00;99.90
3360;DHT22;1693;49.602;11.046;2023-05-02T12:00:57;15.60;99.90
3360;DHT22;1693;49.602;11.046;2023-05-02T12:03:29;15.20;99.90
3360;DHT22;1693;49.602;11.046;2023-05-02T12:06:07;15.00;99.90
3360;DHT22;1693;49.602;11.046;2023-05-02T12:08:37;14.50;99.90
3360;DHT22;1693;49.602;11.046;2023-05-02T12:11:04;14.30;99.90
3360;DHT22;1693;49.602;11.046;2023-05-02T12:13:32;14.00;99.90
3360;DHT22;1693;49.602;11.046;2023-05-02T12:15:59;13.70;99.90
3360;DHT22;1693;49.602;11.046;2023-05-02T12:18:27;13.60;99.90
3360;DHT22;1693;49.602;11.046;2023-05-02T12:20:55;13.60;99.90
3360;DHT22;1693;49.602;11.046;2023-05-02T12:23:23;13.70;99.90
3360;DHT22;1693;49.602;11.046;2023-05-02T12:25:53;13.80;99.90
3360;DHT22;1693;49.602;11.046;2023-05-02T12:28:20;14.20;99.90
3360;DHT22;1693;49.602;11.046;2023-05-02T12:30:49;14.30;99.90
3360;DHT22;1693;49.602;11.046;2023-05-02T12:33:17;14.50;99.90
3360;DHT22;1693;49.602;11.046;2023-05-02T12:35:44;14.60;99.90
3360;DHT22;1693;49.602;11.046;2023-05-02T12:38:14;14.70;99.90
3360;DHT22;1693;49.602;11.046;2023-05-02T12:40:53;14.70;99.90
3360;DHT22;1693;49.602;11.046;2023-05-02T12:43:22;14.50;99.90
3360;DHT22;1693;49.602;11.046;2023-05-02T12:45:52;14.50;99.90
3360;DHT22;1693;49.602;11.046;2023-05-02T12:48:35;14.60;99.90
3360;DHT22;1693;49.602;11.046;2023-05-02T12:51:02;14.90;99.90
3360;DHT22;1693;49.602;11.046;2023-05-02T12:53:39;15.10;99.90
3360;DHT22;1693;49.602;11.046;2023-05-02T12:56:09;15.60;99.90
3360;DHT22;1693;49.602;11.046;2023-05-02T12:58:40;15.40;99.90
3360;DHT22;1693;49.602;11.046;2023-05-02T13:01:08;15.60;99.90
3360;DHT22;1693;49.602;11.046;2023-05-02T13:03:36;15.10;99.90
3360;DHT22;1693;49.602;11.046;2023-05-02T13:06:05;14.70;99.90
3360;DHT22;1693;49.602;11.046;2023-05-02T13:08:33;14.70;99.90
3360;DHT22;1693;49.602;11.046;2023-05-02T13:11:05;14.30;99.90
3360;DHT22;1693;49.602;11.046;2023-05-02T13:13:35;13.80;99.90
3360;DHT22;1693;49.602;11.046;2023-05-02T13:16:03;13.40;99.90
3360;DHT22;1693;49.602;11.046;2023-05-02T13:18:30;13.10;99.90
3360;DHT22;1693;49.602;11.046;2023-05-02T13:20:57;12.80;99.90
3360;DHT22;1693;49.602;11.046;2023-05-02T13:23:25;12.50;99.90
3360;DHT22;1693;49.602;11.046;2023-05-02T13:25:52;12.30;99.90
3360;DHT22;1693;49.602;11.046;2023-05-02T13:28:20;12.10;99.90
3360;DHT22;1693;49.602;11.046;2023-05-02T13:30:48;11.90;99.90
3360;DHT22;1693;49.602;11.046;2023-05-02T13:33:16;12.00;99.90
3360;DHT22;1693;49.602;11.046;2023-05-02T13:35:43;12.10;99.90
3360;DHT22;1693;49.602;11.046;2023-05-02T13:38:10;12.20;99.90
3360;DHT22;1693;49.602;11.046;2023-05-02T13:40:37;12.30;99.90
3360;DHT22;1693;49.602;11.046;2023-05-02T13:43:04;12.30;99.90
3360;DHT22;1693;49.602;11.046;2023-05-02T13:45:32;12.70;99.90
3360;DHT22;1693;49.602;11.046;2023-05-02T13:48:01;13.60;99.90
3360;DHT22;1693;49.602;11.046;2023-05-02T13:55:23;16.80;99.90
3360;DHT22;1693;49.602;11.046;2023-05-02T13:57:50;17.50;99.90
3360;DHT22;1693;49.602;11.046;2023-05-02T14:09:14;20.40;99.90
3360;DHT22;1693;49.602;11.046;2023-05-02T14:11:41;20.20;99.90
3360;DHT22;1693;49.602;11.046;2023-05-02T14:14:27;21.00;99.90
3360;DHT22;1693;49.602;11.046;2023-05-02T14:16:55;22.90;99.90
3360;DHT22;1693;49.602;11.046;2023-05-02T14:22:30;22.20;99.90
3360;DHT22;1693;49.602;11.046;2023-05-02T14:24:57;22.10;99.90
3360;DHT22;1693;49.602;11.046;2023-05-02T14:27:25;22.20;99.90
3360;DHT22;1693;49.602;11.046;2023-05-02T14:29:55;22.00;99.90
3360;DHT22;1693;49.602;11.046;2023-05-02T14:32:22;21.60;99.90
3360;DHT22;1693;49.602;11.046;2023-05-02T14:34:50;21.30;99.90
3360;DHT22;1693;49.602;11.046;2023-05-02T14:39:45;25.50;99.80
3360;DHT22;1693;49.602;11.046;2023-05-02T14:44:41;27.50;88.80
3360;DHT22;1693;49.602;11.046;2023-05-02T14:47:08;26.70;86.70
3360;DHT22;1693;49.602;11.046;2023-05-02T14:49:35;25.50;83.20
3360;DHT22;1693;49.602;11.046;2023-05-02T14:52:04;24.50;85.30
3360;DHT22;1693;49.602;11.046;2023-05-02T14:54:31;23.50;90.00
3360;DHT22;1693;49.602;11.046;2023-05-02T14:56:58;24.80;90.90
3360;DHT22;1693;49.602;11.046;2023-05-02T14:59:29;25.20;92.90
3360;DHT22;1693;49.602;11.046;2023-05-02T15:01:59;25.10;89.40
3360;DHT22;1693;49.602;11.046;2023-05-02T15:04:28;24.50;90.50
3360;DHT22;1693;49.602;11.046;2023-05-02T15:06:55;24.20;90.50
3360;DHT22;1693;49.602;11.046;2023-05-02T15:09:24;24.60;91.30
3360;DHT22;1693;49.602;11.046;2023-05-02T15:11:51;25.50;90.10
3360;DHT22;1693;49.602;11.046;2023-05-02T15:14:19;25.90;86.50
3360;DHT22;1693;49.602;11.046;2023-05-02T15:16:46;28.40;79.20
3360;DHT22;1693;49.602;11.046;2023-05-02T15:19:13;27.90;77.60
3360;DHT22;1693;49.602;11.046;2023-05-02T15:21:40;25.90;81.00
3360;DHT22;1693;49.602;11.046;2023-05-02T15:24:08;27.40;82.30
3360;DHT22;1693;49.602;11.046;2023-05-02T15:26:37;28.40;74.00
3360;DHT22;1693;49.602;11.046;2023-05-02T15:29:05;26.10;74.50
3360;DHT22;1693;49.602;11.046;2023-05-02T15:31:32;25.80;77.50
3360;DHT22;1693;49.602;11.046;2023-05-02T15:36:27;27.30;71.90
3360;DHT22;1693;49.602;11.046;2023-05-02T15:38:54;28.20;71.30
3360;DHT22;1693;49.602;11.046;2023-05-02T15:41:23;28.10;72.50
3360;DHT22;1693;49.602;11.046;2023-05-02T15:43:53;26.00;73.00
3360;DHT22;1693;49.602;11.046;2023-05-02T15:46:20;24.80;78.40
3360;DHT22;1693;49.602;11.046;2023-05-02T15:51:14;24.10;99.90
3360;DHT22;1693;49.602;11.046;2023-05-02T15:53:41;27.10;77.40
3360;DHT22;1693;49.602;11.046;2023-05-02T15:56:09;29.40;69.40
3360;DHT22;1693;49.602;11.046;2023-05-02T15:58:37;29.10;64.90
3360;DHT22;1693;49.602;11.046;2023-05-02T16:10:57;25.30;97.00
3360;DHT22;1693;49.602;11.046;2023-05-02T16:15:53;28.10;66.20
3360;DHT22;1693;49.602;11.046;2023-05-02T16:18:22;28.70;62.60
3360;DHT22;1693;49.602;11.046;2023-05-02T16:20:53;27.50;60.60
3360;DHT22;1693;49.602;11.046;2023-05-02T16:23:23;26.10;62.80
3360;DHT22;1693;49.602;11.046;2023-05-02T16:25:58;25.30;94.90
3360;DHT22;1693;49.602;11.046;2023-05-02T16:28:30;28.10;60.00
3360;DHT22;1693;49.602;11.046;2023-05-02T16:30:58;28.50;59.30
3360;DHT22;1693;49.602;11.046;2023-05-02T16:33:33;28.80;58.30
3360;DHT22;1693;49.602;11.046;2023-05-02T16:36:00;28.50;57.60
3360;DHT22;1693;49.602;11.046;2023-05-02T16:38:28;28.00;58.10
3360;DHT22;1693;49.602;11.046;2023-05-02T16:40:55;27.70;60.30
3360;DHT22;1693;49.602;11.046;2023-05-02T16:43:23;27.50;59.10
3360;DHT22;1693;49.602;11.046;2023-05-02T16:45:58;26.60;61.60
3360;DHT22;1693;49.602;11.046;2023-05-02T16:53:22;23.30;64.90
3360;DHT22;1693;49.602;11.046;2023-05-02T16:55:49;23.20;65.80
3360;DHT22;1693;49.602;11.046;2023-05-02T16:58:16;21.30;73.40
3360;DHT22;1693;49.602;11.046;2023-05-02T17:00:43;20.60;75.00
3360;DHT22;1693;49.602;11.046;2023-05-02T17:03:11;20.30;77.00
3360;DHT22;1693;49.602;11.046;2023-05-02T17:05:38;19.60;80.20
3360;DHT22;1693;49.602;11.046;2023-05-02T17:08:07;19.20;83.60
3360;DHT22;1693;49.602;11.046;2023-05-02T17:10:34;18.50;87.90
3360;DHT22;1693;49.602;11.046;2023-05-02T17:13:01;18.20;90.90
3360;DHT22;1693;49.602;11.046;2023-05-02T17:15:28;17.60;93.40
3360;DHT22;1693;49.602;11.046;2023-05-02T17:17:56;17.10;96.60
3360;DHT22;1693;49.602;11.046;2023-05-02T17:20:23;16.70;99.20
3360;DHT22;1693;49.602;11.046;2023-05-02T17:22:50;16.40;99.90
3360;DHT22;1693;49.602;11.046;2023-05-02T17:25:20;16.00;99.90
3360;DHT22;1693;49.602;11.046;2023-05-02T17:27:47;15.70;99.90
3360;DHT22;1693;49.602;11.046;2023-05-02T17:30:15;15.50;99.90
3360;DHT22;1693;49.602;11.046;2023-05-02T17:32:42;15.40;99.90
3360;DHT22;1693;49.602;11.046;2023-05-02T17:35:09;15.20;99.90
3360;DHT22;1693;49.602;11.046;2023-05-02T17:37:36;15.10;99.90
3360;DHT22;1693;49.602;11.046;2023-05-02T17:40:06;14.90;99.90
3360;DHT22;1693;49.602;11.046;2023-05-02T17:42:35;14.80;99.90
3360;DHT22;1693;49.602;11.046;2023-05-02T17:45:02;14.60;99.90
3360;DHT22;1693;49.602;11.046;2023-05-02T17:47:32;14.40;99.90
3360;DHT22;1693;49.602;11.046;2023-05-02T17:50:01;14.20;99.90
3360;DHT22;1693;49.602;11.046;2023-05-02T17:52:31;13.90;99.90
3360;DHT22;1693;49.602;11.046;2023-05-02T17:55:00;13.60;99.90
3360;DHT22;1693;49.602;11.046;2023-05-02T17:57:27;13.40;99.90
3360;DHT22;1693;49.602;11.046;2023-05-02T17:59:56;13.30;99.90
3360;DHT22;1693;49.602;11.046;2023-05-02T18:02:25;13.40;99.90
3360;DHT22;1693;49.602;11.046;2023-05-02T18:04:52;13.20;99.90
3360;DHT22;1693;49.602;11.046;2023-05-02T18:07:19;13.10;99.90
3360;DHT22;1693;49.602;11.046;2023-05-02T18:09:49;12.90;99.90
3360;DHT22;1693;49.602;11.046;2023-05-02T18:12:17;12.90;99.90
3360;DHT22;1693;49.602;11.046;2023-05-02T18:14:44;12.80;99.90
3360;DHT22;1693;49.602;11.046;2023-05-02T18:17:12;12.70;99.90
3360;DHT22;1693;49.602;11.046;2023-05-02T18:19:39;12.50;99.90
3360;DHT22;1693;49.602;11.046;2023-05-02T18:22:06;12.60;99.90
3360;DHT22;1693;49.602;11.046;2023-05-02T18:24:34;12.20;99.90
3360;DHT22;1693;49.602;11.046;2023-05-02T18:27:01;12.20;99.90
3360;DHT22;1693;49.602;11.046;2023-05-02T18:29:29;12.10;99.90
3360;DHT22;1693;49.602;11.046;2023-05-02T18:31:57;12.10;99.90
3360;DHT22;1693;49.602;11.046;2023-05-02T18:34:29;12.00;99.90
3360;DHT22;1693;49.602;11.046;2023-05-02T18:36:57;11.90;99.90
3360;DHT22;1693;49.602;11.046;2023-05-02T18:39:29;11.80;99.90
3360;DHT22;1693;49.602;11.046;2023-05-02T18:41:56;11.70;99.90
3360;DHT22;1693;49.602;11.046;2023-05-02T18:44:23;11.70;99.90
3360;DHT22;1693;49.602;11.046;2023-05-02T18:46:51;11.70;99.90
3360;DHT22;1693;49.602;11.046;2023-05-02T18:49:18;11.60;99.90
3360;DHT22;1693;49.602;11.046;2023-05-02T18:51:47;11.50;99.90
3360;DHT22;1693;49.602;11.046;2023-05-02T18:54:14;11.50;99.90
3360;DHT22;1693;49.602;11.046;2023-05-02T18:56:41;11.50;99.90
3360;DHT22;1693;49.602;11.046;2023-05-02T18:59:08;11.50;99.90
3360;DHT22;1693;49.602;11.046;2023-05-02T19:01:36;11.40;99.90
3360;DHT22;1693;49.602;11.046;2023-05-02T19:04:04;11.40;99.90
3360;DHT22;1693;49.602;11.046;2023-05-02T19:06:31;11.40;99.90
3360;DHT22;1693;49.602;11.046;2023-05-02T19:08:59;11.30;99.90
3360;DHT22;1693;49.602;11.046;2023-05-02T19:11:27;11.30;99.90
3360;DHT22;1693;49.602;11.046;2023-05-02T19:13:54;11.30;99.90
3360;DHT22;1693;49.602;11.046;2023-05-02T19:16:24;11.30;99.90
3360;DHT22;1693;49.602;11.046;2023-05-02T19:18:54;11.40;99.90
3360;DHT22;1693;49.602;11.046;2023-05-02T19:21:23;11.30;99.90
3360;DHT22;1693;49.602;11.046;2023-05-02T19:23:51;11.30;99.90
3360;DHT22;1693;49.602;11.046;2023-05-02T19:26:20;11.20;99.90
3360;DHT22;1693;49.602;11.046;2023-05-02T19:28:47;11.20;99.90
3360;DHT22;1693;49.602;11.046;2023-05-02T19:31:15;11.00;99.90